Time;durP1;ratioP1;P1;durP2;ratioP2;P2;SDS_P1;SDS_P2;PMS_P1;PMS_P2;Temp;Humidity;BMP_temperature;BMP_pressure;BME280_temperature;BME280_humidity;BME280_pressure;Samples;Min_cycle;Max_cycle;Signal;HPM_P1;HPM_P2
2023/05/14 00:00:19;;;;;;;12.07;8.48;;;;;11.10;96327.00;;;;8254411;28;20205;-67
2023/05/14 00:04:23;;;;;;;11.98;8.75;;;;;11.10;96331.00;;;;8256323;28;20195;-67
2023/05/14 00:08:26;;;;;;;13.43;8.63;;;;;11.10;96329.00;;;;8246609;28;20322;-67
2023/05/14 00:12:30;;;;;;;14.77;9.32;;;;;11.20;96329.00;;;;8227437;28;20205;-66
2023/05/14 00:16:35;;;;;;;11.90;8.27;;;;;11.20;96325.00;;;;8246746;28;20234;-67
2023/05/14 00:20:43;;;;;;;16.02;9.23;;;;;11.30;96318.00;;;;8249044;28;20209;-68
2023/05/14 00:24:49;;;;;;;10.68;8.25;;;;;11.40;96316.00;;;;8248135;28;20723;-66
2023/05/14 00:28:54;;;;;;;12.32;8.90;;;;;11.50;96314.00;;;;8247471;28;20465;-67
2023/05/14 00:32:59;;;;;;;15.18;9.00;;;;;11.50;96309.00;;;;8254727;28;20202;-67
2023/05/14 00:37:05;;;;;;;13.18;9.07;;;;;11.60;96310.00;;;;8255312;28;20232;-67
2023/05/14 00:41:11;;;;;;;11.70;8.60;;;;;11.60;96309.00;;;;8253837;28;20234;-68
2023/05/14 00:45:14;;;;;;;13.05;8.32;;;;;11.70;96311.00;;;;8255812;28;20232;-67
2023/05/14 00:49:20;;;;;;;11.18;8.10;;;;;11.70;96306.00;;;;8249866;28;20248;-66
2023/05/14 00:53:25;;;;;;;11.30;8.48;;;;;11.70;96302.00;;;;8252840;28;20458;-67
2023/05/14 00:57:28;;;;;;;10.10;8.07;;;;;11.70;96304.00;;;;8249470;28;20291;-67
2023/05/14 01:01:35;;;;;;;14.30;8.38;;;;;11.80;96311.00;;;;8253655;28;20887;-67
2023/05/14 01:05:53;;;;;;;10.35;7.95;;;;;11.80;96306.00;;;;8240009;28;20207;-67
2023/05/14 01:10:06;;;;;;;13.32;8.45;;;;;11.80;96300.00;;;;8249736;28;20220;-67
2023/05/14 01:14:23;;;;;;;13.13;8.60;;;;;11.80;96306.00;;;;8251811;28;20212;-67
2023/05/14 01:18:29;;;;;;;12.30;9.30;;;;;11.80;96301.00;;;;8249236;28;20233;-67
2023/05/14 01:22:34;;;;;;;13.10;9.05;;;;;11.80;96291.00;;;;8252115;28;20316;-67
2023/05/14 01:26:39;;;;;;;14.07;8.68;;;;;11.80;96296.00;;;;8247271;28;20198;-67
2023/05/14 01:30:48;;;;;;;13.15;8.88;;;;;11.80;96287.00;;;;8253513;28;20269;-67
2023/05/14 01:34:55;;;;;;;11.90;8.30;;;;;11.80;96291.00;;;;8250892;28;20202;-67
2023/05/14 01:39:08;;;;;;;11.95;8.05;;;;;11.80;96289.00;;;;8244413;28;20234;-67
2023/05/14 01:43:11;;;;;;;12.05;8.27;;;;;11.80;96278.00;;;;8248803;28;20207;-67
2023/05/14 01:47:14;;;;;;;12.73;8.75;;;;;11.80;96276.00;;;;8248337;28;20217;-68
2023/05/14 01:51:21;;;;;;;11.70;8.43;;;;;11.70;96279.00;;;;8252494;28;20199;-67
2023/05/14 01:55:31;;;;;;;12.30;9.27;;;;;11.70;96280.00;;;;8253168;28;20207;-66
2023/05/14 01:59:35;;;;;;;11.50;8.18;;;;;11.70;96277.00;;;;8248568;28;20314;-67
2023/05/14 02:03:39;;;;;;;15.38;7.93;;;;;11.60;96278.00;;;;8251013;28;20365;-67
2023/05/14 02:07:45;;;;;;;12.07;8.27;;;;;11.50;96279.00;;;;8249578;28;20233;-67
2023/05/14 02:11:52;;;;;;;14.63;8.07;;;;;11.50;96272.00;;;;8247750;28;20209;-66
2023/05/14 02:15:55;;;;;;;13.68;8.70;;;;;11.40;96279.00;;;;8241856;28;20227;-67
2023/05/14 02:20:00;;;;;;;10.77;7.80;;;;;11.40;96274.00;;;;8246601;28;20665;-67
2023/05/14 02:24:07;;;;;;;13.82;8.18;;;;;11.30;96264.00;;;;8250713;28;20202;-67
2023/05/14 02:28:12;;;;;;;11.98;8.60;;;;;11.30;96266.00;;;;8245708;28;20226;-68
2023/05/14 02:32:17;;;;;;;10.07;8.27;;;;;11.30;96266.00;;;;8247636;28;20728;-67
2023/05/14 02:36:23;;;;;;;10.05;7.65;;;;;11.30;96262.00;;;;8249899;28;20324;-67
2023/05/14 02:40:31;;;;;;;14.05;9.20;;;;;11.20;96253.00;;;;8258712;28;20211;-67
2023/05/14 02:44:37;;;;;;;12.82;8.15;;;;;11.20;96266.00;;;;8251716;28;20203;-67
2023/05/14 02:48:43;;;;;;;13.63;9.80;;;;;11.20;96249.00;;;;8256128;28;20202;-68
2023/05/14 02:52:47;;;;;;;14.68;8.43;;;;;11.10;96248.00;;;;8257748;28;20252;-67
2023/05/14 02:56:51;;;;;;;11.35;8.55;;;;;11.10;96242.00;;;;8257998;28;20221;-68
2023/05/14 03:05:14;;;;;;;13.02;9.10;;;;;10.90;96243.00;;;;8266712;26;20224;-67
2023/05/14 03:09:19;;;;;;;15.75;9.55;;;;;10.80;96238.00;;;;8289866;28;20202;-67
2023/05/14 03:13:27;;;;;;;14.40;9.57;;;;;10.80;96242.00;;;;8274966;28;20209;-66
2023/05/14 03:17:30;;;;;;;14.93;9.50;;;;;10.70;96238.00;;;;8287525;28;20229;-67
2023/05/14 03:21:35;;;;;;;16.23;10.18;;;;;10.60;96233.00;;;;8290125;28;20208;-67
2023/05/14 03:25:38;;;;;;;17.05;9.52;;;;;10.50;96236.00;;;;8275309;28;20225;-67
2023/05/14 03:29:47;;;;;;;14.90;10.40;;;;;10.40;96233.00;;;;8288292;28;20232;-67
2023/05/14 03:33:50;;;;;;;18.00;10.68;;;;;10.30;96227.00;;;;8290204;28;20204;-67
2023/05/14 03:37:58;;;;;;;17.08;10.25;;;;;10.20;96230.00;;;;8288556;28;20641;-67
2023/05/14 03:42:01;;;;;;;15.45;10.13;;;;;10.20;96231.00;;;;8289396;28;20227;-66
2023/05/14 03:46:04;;;;;;;16.17;9.52;;;;;10.10;96232.00;;;;8287166;28;20202;-67
2023/05/14 03:50:08;;;;;;;18.00;11.00;;;;;10.10;96221.00;;;;8287504;28;20948;-67
2023/05/14 03:54:16;;;;;;;16.10;9.90;;;;;10.10;96223.00;;;;8283857;28;20198;-67
2023/05/14 03:58:19;;;;;;;14.07;9.55;;;;;10.10;96223.00;;;;8285617;28;20280;-66
2023/05/14 04:02:26;;;;;;;15.40;9.27;;;;;10.10;96217.00;;;;8279746;28;20234;-67
2023/05/14 04:06:30;;;;;;;16.87;11.40;;;;;10.10;96221.00;;;;8280445;28;20203;-67
2023/05/14 04:10:34;;;;;;;15.68;9.93;;;;;10.10;96211.00;;;;8284054;28;20196;-66
2023/05/14 04:14:42;;;;;;;16.42;9.80;;;;;10.10;96219.00;;;;8277844;28;21208;-68
2023/05/14 04:18:47;;;;;;;16.27;9.93;;;;;10.10;96213.00;;;;8283804;28;20737;-67
2023/05/14 04:22:50;;;;;;;16.70;10.57;;;;;10.10;96217.00;;;;8286611;28;20209;-67
2023/05/14 04:26:57;;;;;;;17.02;10.02;;;;;10.20;96214.00;;;;8279543;28;20688;-66
2023/05/14 04:31:00;;;;;;;17.15;9.98;;;;;10.20;96208.00;;;;8286165;28;20261;-66
2023/05/14 04:35:04;;;;;;;16.80;10.55;;;;;10.30;96210.00;;;;8287536;28;20197;-67
2023/05/14 04:39:08;;;;;;;17.67;10.88;;;;;10.40;96214.00;;;;8287294;28;20229;-67
2023/05/14 04:43:13;;;;;;;17.30;10.70;;;;;10.50;96216.00;;;;8283167;28;20260;-66
2023/05/14 04:47:21;;;;;;;17.95;11.43;;;;;10.60;96212.00;;;;8276382;28;20297;-67
2023/05/14 04:51:30;;;;;;;14.52;9.85;;;;;10.70;96212.00;;;;8288001;28;20198;-67
2023/05/14 04:55:33;;;;;;;18.55;10.27;;;;;10.80;96209.00;;;;8284473;28;20244;-67
2023/05/14 04:59:39;;;;;;;14.45;9.45;;;;;11.00;96215.00;;;;8284401;28;20229;-68
2023/05/14 05:03:42;;;;;;;14.40;9.25;;;;;11.10;96212.00;;;;8285954;28;20229;-67
2023/05/14 05:07:46;;;;;;;15.23;9.23;;;;;11.30;96221.00;;;;8285937;28;20273;-67
2023/05/14 05:11:49;;;;;;;13.82;9.07;;;;;11.50;96228.00;;;;8284121;28;20209;-67
2023/05/14 05:15:55;;;;;;;11.77;8.57;;;;;11.70;96228.00;;;;8284561;28;20232;-68
2023/05/14 05:20:03;;;;;;;13.98;9.45;;;;;11.90;96233.00;;;;8276501;28;20221;-67
2023/05/14 05:24:08;;;;;;;16.85;8.80;;;;;12.00;96231.00;;;;8280657;28;20198;-66
2023/05/14 05:28:15;;;;;;;14.77;9.27;;;;;12.10;96231.00;;;;8283772;28;20287;-67
2023/05/14 05:32:23;;;;;;;12.45;8.63;;;;;12.20;96223.00;;;;8286476;28;20203;-67
2023/05/14 05:36:27;;;;;;;14.25;8.70;;;;;12.40;96223.00;;;;8282748;28;20296;-68
2023/05/14 05:40:40;;;;;;;13.13;8.82;;;;;12.60;96221.00;;;;8286143;28;20240;-67
2023/05/14 05:44:43;;;;;;;12.35;8.52;;;;;12.70;96214.00;;;;8283327;28;20758;-68
2023/05/14 05:48:52;;;;;;;12.10;8.35;;;;;12.90;96229.00;;;;8285009;28;20528;-67
2023/05/14 05:52:55;;;;;;;11.20;8.40;;;;;13.20;96216.00;;;;8284425;28;20197;-67
2023/05/14 05:57:00;;;;;;;14.15;8.32;;;;;13.40;96223.00;;;;8278658;28;20826;-67
2023/05/14 06:01:07;;;;;;;15.52;8.18;;;;;13.50;96228.00;;;;8276407;28;20227;-68
2023/05/14 06:05:12;;;;;;;11.60;7.80;;;;;13.70;96233.00;;;;8272250;28;20268;-68
2023/05/14 06:09:17;;;;;;;11.27;8.23;;;;;13.70;96231.00;;;;8276176;28;20198;-68
2023/05/14 06:13:20;;;;;;;13.48;8.00;;;;;13.90;96230.00;;;;8276106;28;20722;-69
2023/05/14 06:17:23;;;;;;;11.18;7.43;;;;;13.90;96233.00;;;;8276203;28;20222;-68
2023/05/14 06:21:30;;;;;;;10.57;8.00;;;;;13.80;96232.00;;;;8277309;28;20201;-68
2023/05/14 06:25:34;;;;;;;11.98;8.05;;;;;13.80;96239.00;;;;8272534;28;20206;-69
2023/05/14 06:29:39;;;;;;;11.23;8.10;;;;;13.90;96230.00;;;;8274286;28;20256;-69
2023/05/14 06:33:42;;;;;;;11.13;7.88;;;;;14.20;96236.00;;;;8274306;28;20209;-68
2023/05/14 06:37:46;;;;;;;11.30;8.32;;;;;14.20;96232.00;;;;8271081;28;20608;-68
2023/05/14 06:41:50;;;;;;;10.93;7.85;;;;;14.30;96232.00;;;;8280627;28;20209;-69
2023/05/14 06:45:56;;;;;;;11.88;7.75;;;;;14.70;96229.00;;;;8280531;28;20941;-68
2023/05/14 06:50:00;;;;;;;10.23;6.97;;;;;15.10;96223.00;;;;8269594;28;20674;-68
2023/05/14 06:54:06;;;;;;;10.60;7.28;;;;;15.30;96229.00;;;;8275403;28;20563;-67
2023/05/14 06:58:10;;;;;;;10.57;7.22;;;;;15.40;96228.00;;;;8270808;28;20280;-68
2023/05/14 07:02:13;;;;;;;9.65;7.22;;;;;15.40;96231.00;;;;8275765;28;20226;-68
2023/05/14 07:06:18;;;;;;;8.68;7.18;;;;;15.60;96231.00;;;;8276464;28;20198;-68
2023/05/14 07:10:22;;;;;;;9.80;6.72;;;;;15.80;96228.00;;;;8278474;28;20794;-66
2023/05/14 07:14:28;;;;;;;9.52;6.30;;;;;15.90;96230.00;;;;8269410;28;20194;-67
2023/05/14 07:18:31;;;;;;;7.95;6.40;;;;;16.00;96235.00;;;;8269324;28;20265;-69
2023/05/14 07:22:34;;;;;;;7.85;6.03;;;;;16.10;96227.00;;;;8275625;28;20231;-69
2023/05/14 07:26:40;;;;;;;10.65;6.93;;;;;16.20;96237.00;;;;8281364;28;20206;-65
2023/05/14 07:30:44;;;;;;;7.72;6.32;;;;;16.40;96221.00;;;;8282389;28;20190;-66
2023/05/14 07:39:01;;;;;;;7.63;5.25;;;;;17.40;96215.00;;;;8212667;28;20897;-67
2023/05/14 07:43:08;;;;;;;6.82;5.80;;;;;17.60;96207.00;;;;8242106;28;20231;-67
2023/05/14 07:47:11;;;;;;;8.68;6.00;;;;;17.50;96212.00;;;;8249727;28;20253;-67
2023/05/14 07:51:14;;;;;;;11.85;5.30;;;;;18.00;96214.00;;;;8246566;28;20208;-69
2023/05/14 07:55:18;;;;;;;7.93;5.28;;;;;18.60;96212.00;;;;8245413;28;20421;-68
2023/05/14 07:59:25;;;;;;;5.07;4.57;;;;;18.80;96207.00;;;;8241253;28;20238;-67
2023/05/14 08:03:33;;;;;;;6.60;5.45;;;;;19.30;96204.00;;;;8244612;28;20961;-67
2023/05/14 08:07:36;;;;;;;6.63;4.93;;;;;19.50;96202.00;;;;8245816;28;20233;-67
2023/05/14 08:11:39;;;;;;;4.20;3.72;;;;;19.40;96206.00;;;;8246675;28;20211;-67
2023/05/14 08:15:47;;;;;;;4.40;4.00;;;;;19.40;96199.00;;;;8250491;28;20214;-68
2023/05/14 08:19:53;;;;;;;5.78;4.80;;;;;19.60;96198.00;;;;8241743;28;20234;-66
2023/05/14 08:24:00;;;;;;;4.97;4.22;;;;;19.50;96193.00;;;;8250178;28;20198;-68
2023/05/14 08:28:04;;;;;;;4.22;3.83;;;;;19.80;96189.00;;;;8251472;28;20199;-68
2023/05/14 08:32:09;;;;;;;4.72;4.22;;;;;20.10;96181.00;;;;8250889;28;20719;-67
2023/05/14 08:36:25;;;;;;;4.82;4.32;;;;;19.80;96168.00;;;;8247221;28;20270;-68
2023/05/14 08:40:30;;;;;;;4.80;4.30;;;;;20.90;96167.00;;;;8229209;28;20227;-67
2023/05/14 08:44:39;;;;;;;4.88;3.88;;;;;20.30;96150.00;;;;8244383;28;20206;-67
2023/05/14 08:48:51;;;;;;;3.97;3.55;;;;;19.80;96156.00;;;;8246187;28;20293;-67
2023/05/14 08:52:54;;;;;;;3.65;3.38;;;;;19.80;96160.00;;;;8253430;28;20207;-68
2023/05/14 08:56:57;;;;;;;4.28;3.67;;;;;19.70;96168.00;;;;8240207;28;20219;-67
2023/05/14 09:01:00;;;;;;;5.75;4.40;;;;;19.70;96161.00;;;;8241851;28;20238;-67
2023/05/14 09:05:11;;;;;;;5.82;3.90;;;;;20.90;96158.00;;;;8237152;28;20198;-66
2023/05/14 09:09:14;;;;;;;5.32;4.40;;;;;20.60;96158.00;;;;8240791;28;20237;-67
2023/05/14 09:13:20;;;;;;;4.10;3.70;;;;;20.60;96147.00;;;;8243365;28;20207;-66
2023/05/14 09:17:26;;;;;;;5.30;4.38;;;;;21.00;96148.00;;;;8239288;28;20202;-67
2023/05/14 09:21:30;;;;;;;4.95;4.35;;;;;21.60;96151.00;;;;8251300;28;20262;-67
2023/05/14 09:25:35;;;;;;;3.72;3.42;;;;;21.70;96151.00;;;;8238875;28;20203;-66
2023/05/14 09:29:38;;;;;;;3.92;3.50;;;;;21.60;96150.00;;;;8245232;28;20253;-67
2023/05/14 09:33:41;;;;;;;3.30;3.03;;;;;22.80;96156.00;;;;8241646;28;20259;-67
2023/05/14 09:37:48;;;;;;;3.70;3.35;;;;;22.80;96156.00;;;;8250105;28;20226;-66
2023/05/14 09:41:51;;;;;;;5.03;3.67;;;;;21.70;96145.00;;;;8240839;28;20223;-66
2023/05/14 09:45:55;;;;;;;3.55;3.25;;;;;21.70;96141.00;;;;8241017;28;20641;-67
2023/05/14 09:50:02;;;;;;;3.85;3.20;;;;;21.60;96136.00;;;;8236231;28;20202;-66
2023/05/14 09:54:08;;;;;;;4.40;2.90;;;;;21.70;96134.00;;;;8242085;28;20725;-70
2023/05/14 09:58:13;;;;;;;3.00;2.80;;;;;22.00;96139.00;;;;8233826;28;20195;-67
2023/05/14 10:02:23;;;;;;;3.17;2.88;;;;;22.30;96137.00;;;;8237291;28;20307;-67
2023/05/14 10:06:30;;;;;;;2.92;2.63;;;;;22.40;96132.00;;;;8246064;28;20560;-67
2023/05/14 10:10:37;;;;;;;2.83;2.63;;;;;22.20;96132.00;;;;8243090;28;20203;-67
2023/05/14 10:14:44;;;;;;;2.40;2.30;;;;;22.30;96122.00;;;;8246111;28;20198;-67
2023/05/14 10:18:53;;;;;;;3.97;2.60;;;;;24.10;96130.00;;;;8238482;28;20227;-67
2023/05/14 10:23:02;;;;;;;3.75;3.40;;;;;24.20;96125.00;;;;8248628;28;20220;-67
2023/05/14 10:27:08;;;;;;;4.85;3.90;;;;;23.10;96119.00;;;;8236110;28;20273;-67
2023/05/14 10:31:12;;;;;;;3.97;3.53;;;;;23.10;96117.00;;;;8241725;28;20195;-67
2023/05/14 10:35:19;;;;;;;9.00;3.35;;;;;23.40;96119.00;;;;8242057;28;20203;-66
2023/05/14 10:39:23;;;;;;;3.63;3.33;;;;;22.90;96111.00;;;;8241862;28;20284;-67
2023/05/14 10:43:31;;;;;;;3.33;3.03;;;;;24.20;96107.00;;;;8227303;28;20195;-66
2023/05/14 10:47:36;;;;;;;3.72;3.30;;;;;25.20;96110.00;;;;8239615;28;20195;-67
2023/05/14 10:51:40;;;;;;;3.10;2.90;;;;;24.90;96100.00;;;;8247931;28;20210;-66
2023/05/14 10:55:44;;;;;;;3.38;3.08;;;;;24.30;96101.00;;;;8241611;28;20894;-67
2023/05/14 10:59:52;;;;;;;4.85;3.10;;;;;24.10;96097.00;;;;8242247;28;20230;-67
2023/05/14 11:04:06;;;;;;;4.72;3.08;;;;;24.30;96097.00;;;;8248377;28;20257;-67
2023/05/14 11:08:10;;;;;;;3.63;2.53;;;;;23.90;96097.00;;;;8243248;28;20565;-67
2023/05/14 11:12:16;;;;;;;3.15;2.95;;;;;24.60;96099.00;;;;8249989;28;20203;-66
2023/05/14 11:16:23;;;;;;;3.67;2.83;;;;;23.70;96097.00;;;;8243424;28;20225;-67
2023/05/14 11:20:26;;;;;;;2.92;2.72;;;;;23.00;96086.00;;;;8245513;28;20254;-67
2023/05/14 11:24:32;;;;;;;3.25;3.05;;;;;23.00;96080.00;;;;8252241;28;20660;-67
2023/05/14 11:28:37;;;;;;;2.90;2.70;;;;;22.40;96085.00;;;;8235425;28;20246;-66
2023/05/14 11:32:50;;;;;;;3.20;3.00;;;;;22.00;96082.00;;;;8231813;28;20207;-67
2023/05/14 11:36:53;;;;;;;3.63;3.35;;;;;22.10;96088.00;;;;8245923;28;20234;-84
2023/05/14 11:41:03;;;;;;;3.60;3.08;;;;;23.20;96073.00;;;;8247836;28;20218;-71
2023/05/14 11:45:13;;;;;;;3.28;2.97;;;;;24.30;96065.00;;;;8243112;28;20249;-68
2023/05/14 11:49:24;;;;;;;4.15;3.20;;;;;23.60;96066.00;;;;8236759;28;20253;-74
2023/05/14 11:53:33;;;;;;;4.45;3.40;;;;;23.60;96066.00;;;;8246423;28;20199;-68
2023/05/14 11:57:36;;;;;;;3.22;2.95;;;;;24.70;96056.00;;;;8245121;28;20589;-74
2023/05/14 12:01:46;;;;;;;4.30;3.15;;;;;25.50;96056.00;;;;8247143;28;20230;-74
2023/05/14 12:05:57;;;;;;;2.42;2.33;;;;;26.40;96049.00;;;;8244741;28;20206;-73
2023/05/14 12:10:04;;;;;;;3.78;2.80;;;;;27.40;96036.00;;;;8241486;28;20196;-73
2023/05/14 12:14:16;;;;;;;2.50;2.40;;;;;27.20;96046.00;;;;8240187;28;20632;-73
2023/05/14 12:18:26;;;;;;;4.88;2.45;;;;;26.90;96030.00;;;;8243867;28;20702;-73
2023/05/14 12:22:31;;;;;;;3.35;3.05;;;;;26.00;96025.00;;;;8247755;28;20690;-71
2023/05/14 12:26:34;;;;;;;3.00;2.80;;;;;25.50;96024.00;;;;8246931;28;20257;-72
2023/05/14 12:30:40;;;;;;;3.03;2.80;;;;;24.30;96017.00;;;;8249849;28;20207;-73
2023/05/14 12:34:43;;;;;;;3.97;2.78;;;;;23.70;96019.00;;;;8241859;28;20797;-71
2023/05/14 12:39:00;;;;;;;3.83;3.28;;;;;23.50;96023.00;;;;8246957;28;20253;-73
2023/05/14 12:43:08;;;;;;;3.15;2.92;;;;;23.20;96009.00;;;;8243828;28;20226;-74
2023/05/14 12:47:11;;;;;;;4.85;3.10;;;;;23.10;96014.00;;;;8235479;28;20211;-75
2023/05/14 12:51:14;;;;;;;3.08;2.83;;;;;22.90;96002.00;;;;8241318;28;20199;-73
2023/05/14 12:55:19;;;;;;;3.40;3.10;;;;;22.70;96007.00;;;;8249650;28;20772;-72
2023/05/14 12:59:22;;;;;;;3.00;2.80;;;;;22.60;96000.00;;;;8248207;28;20199;-72
2023/05/14 13:03:28;;;;;;;3.40;3.20;;;;;22.40;95997.00;;;;8246499;28;20288;-72
2023/05/14 13:07:34;;;;;;;4.00;2.95;;;;;22.10;95998.00;;;;8247614;28;20613;-72
2023/05/14 13:11:47;;;;;;;4.50;3.70;;;;;21.80;95996.00;;;;8239792;28;20599;-72
2023/05/14 13:15:54;;;;;;;3.55;3.25;;;;;21.60;95991.00;;;;8247736;28;20266;-72
2023/05/14 13:19:57;;;;;;;3.80;3.47;;;;;21.50;95985.00;;;;8248540;28;20227;-72
2023/05/14 13:24:02;;;;;;;4.03;3.72;;;;;21.40;95983.00;;;;8252945;28;20191;-72
2023/05/14 13:28:08;;;;;;;5.38;3.45;;;;;21.30;95986.00;;;;8254608;28;20686;-72
2023/05/14 13:32:11;;;;;;;4.65;4.03;;;;;21.10;95981.00;;;;8250821;28;20644;-72
2023/05/14 13:36:15;;;;;;;4.70;4.05;;;;;21.00;95987.00;;;;8250172;28;20235;-72
2023/05/14 13:40:20;;;;;;;4.05;3.60;;;;;21.20;95982.00;;;;8250669;28;20234;-72
2023/05/14 13:44:25;;;;;;;4.88;4.40;;;;;21.20;95974.00;;;;8238124;28;20203;-72
2023/05/14 13:48:33;;;;;;;4.75;4.15;;;;;21.00;95966.00;;;;8249169;28;20727;-71
2023/05/14 13:52:39;;;;;;;4.88;4.38;;;;;20.80;95965.00;;;;8244810;28;20239;-72
2023/05/14 13:56:42;;;;;;;5.72;4.50;;;;;20.70;95960.00;;;;8242756;28;20929;-72
2023/05/14 14:00:46;;;;;;;6.45;4.40;;;;;20.70;95959.00;;;;8238869;28;20225;-71
2023/05/14 14:04:53;;;;;;;4.60;4.20;;;;;20.50;95957.00;;;;8240169;28;20249;-70
2023/05/14 14:08:56;;;;;;;5.10;4.60;;;;;20.40;95958.00;;;;8238600;28;21000;-71
2023/05/14 14:13:00;;;;;;;5.53;4.70;;;;;20.50;95970.00;;;;8244457;28;20199;-71
2023/05/14 14:17:07;;;;;;;5.57;4.38;;;;;20.90;95964.00;;;;8241139;28;20935;-72
2023/05/14 14:21:16;;;;;;;9.70;4.45;;;;;20.80;95966.00;;;;8238491;28;20226;-71
2023/05/14 14:25:20;;;;;;;5.25;4.47;;;;;20.80;95975.00;;;;8242648;28;20198;-71
2023/05/14 14:29:23;;;;;;;7.35;5.05;;;;;21.00;95981.00;;;;8235835;28;21210;-71
2023/05/14 14:33:33;;;;;;;6.82;5.32;;;;;20.50;95979.00;;;;8242344;28;20199;-68
2023/05/14 14:37:36;;;;;;;4.70;3.80;;;;;19.90;95993.00;;;;8250557;28;20226;-69
2023/05/14 14:41:43;;;;;;;2.67;2.47;;;;;19.40;95987.00;;;;8245326;28;20680;-69
2023/05/14 14:45:47;;;;;;;4.20;2.78;;;;;19.10;96001.00;;;;8247613;28;20221;-69
2023/05/14 14:49:52;;;;;;;4.30;3.08;;;;;18.80;95992.00;;;;8245787;28;20861;-68
2023/05/14 14:53:58;;;;;;;7.22;2.63;;;;;18.20;96002.00;;;;8246376;28;20199;-69
2023/05/14 14:58:01;;;;;;;3.42;2.65;;;;;17.40;95994.00;;;;8249824;28;20203;-61
2023/05/14 15:02:05;;;;;;;5.22;2.63;;;;;16.70;96001.00;;;;8245337;28;20660;-61
2023/05/14 15:06:09;;;;;;;5.70;2.55;;;;;16.40;96009.00;;;;8239179;28;20210;-62
2023/05/14 15:10:13;;;;;;;3.45;2.40;;;;;16.40;96009.00;;;;8239450;28;20203;-61
2023/05/14 15:14:19;;;;;;;3.10;2.67;;;;;16.50;95999.00;;;;8244155;28;20564;-62
2023/05/14 15:18:28;;;;;;;3.47;2.60;;;;;16.50;96002.00;;;;8248524;28;20254;-62
2023/05/14 15:22:34;;;;;;;3.55;2.10;;;;;16.40;95993.00;;;;8241135;28;20231;-61
2023/05/14 15:26:37;;;;;;;3.97;2.80;;;;;16.10;95994.00;;;;8245671;28;20199;-61
2023/05/14 15:30:42;;;;;;;3.70;2.83;;;;;15.80;95999.00;;;;8242400;28;20719;-60
2023/05/14 15:34:45;;;;;;;3.85;2.53;;;;;15.50;95991.00;;;;8252077;28;20648;-61
2023/05/14 15:38:53;;;;;;;7.07;2.85;;;;;15.30;95988.00;;;;8244699;28;20231;-61
2023/05/14 15:43:00;;;;;;;3.15;2.38;;;;;15.00;95979.00;;;;8246435;28;20262;-61
2023/05/14 15:47:05;;;;;;;3.40;3.10;;;;;14.80;95990.00;;;;8243655;28;20233;-61
2023/05/14 15:51:10;;;;;;;5.13;3.38;;;;;14.70;95988.00;;;;8243852;28;20211;-60
2023/05/14 15:55:19;;;;;;;3.45;3.03;;;;;14.70;95995.00;;;;8235145;28;20314;-64
2023/05/14 15:59:23;;;;;;;5.50;2.83;;;;;14.90;95998.00;;;;8241981;28;20195;-66
2023/05/14 16:03:30;;;;;;;2.83;2.58;;;;;15.00;95993.00;;;;8239905;28;20227;-66
2023/05/14 16:07:36;;;;;;;5.03;3.75;;;;;15.10;95993.00;;;;8238268;28;22015;-67
2023/05/14 16:11:40;;;;;;;3.20;2.95;;;;;15.00;95995.00;;;;8242436;28;20946;-65
2023/05/14 16:15:43;;;;;;;5.75;4.38;;;;;15.10;95992.00;;;;8242785;28;20207;-65
2023/05/14 16:19:48;;;;;;;6.45;4.13;;;;;15.10;95996.00;;;;8247949;28;20202;-65
2023/05/14 16:24:00;;;;;;;8.60;3.30;;;;;15.10;95993.00;;;;8247214;28;20477;-65
2023/05/14 16:28:12;;;;;;;4.20;2.95;;;;;15.10;96000.00;;;;8244218;28;20604;-65
2023/05/14 16:32:16;;;;;;;3.08;2.78;;;;;14.90;95987.00;;;;8237321;28;20253;-65
2023/05/14 16:36:19;;;;;;;3.67;2.90;;;;;14.80;95983.00;;;;8242073;28;20231;-66
2023/05/14 16:40:22;;;;;;;3.05;2.85;;;;;15.00;95984.00;;;;8242070;28;20642;-66
2023/05/14 16:44:29;;;;;;;3.05;2.75;;;;;15.90;95983.00;;;;8241285;28;20226;-65
2023/05/14 16:48:32;;;;;;;3.08;2.40;;;;;17.00;95981.00;;;;8246897;28;20711;-66
2023/05/14 16:52:37;;;;;;;3.13;2.40;;;;;17.90;95976.00;;;;8243637;28;20285;-65
2023/05/14 16:56:46;;;;;;;2.63;2.42;;;;;18.60;95978.00;;;;8242410;28;20200;-65
2023/05/14 17:00:52;;;;;;;2.30;2.15;;;;;19.30;95964.00;;;;8240144;28;20226;-65
2023/05/14 17:04:58;;;;;;;2.45;2.30;;;;;19.50;95970.00;;;;8236676;28;20190;-66
2023/05/14 17:09:05;;;;;;;2.67;2.50;;;;;19.00;95977.00;;;;8244258;28;20273;-66
2023/05/14 17:13:09;;;;;;;3.47;2.90;;;;;18.50;95973.00;;;;8239935;28;20207;-65
2023/05/14 17:17:13;;;;;;;5.38;3.08;;;;;17.90;95976.00;;;;8243525;28;20199;-66
2023/05/14 17:21:16;;;;;;;9.75;6.90;;;;;17.40;95965.00;;;;8246661;28;20203;-66
2023/05/14 17:25:22;;;;;;;6.43;4.07;;;;;16.90;95975.00;;;;8246810;28;20199;-66
2023/05/14 17:29:26;;;;;;;5.55;4.90;;;;;16.60;95965.00;;;;8237957;28;20225;-64
2023/05/14 17:33:32;;;;;;;6.90;5.05;;;;;16.30;95975.00;;;;8235709;28;20206;-66
2023/05/14 17:37:38;;;;;;;4.07;3.60;;;;;15.90;95975.00;;;;8244958;28;20233;-66
2023/05/14 17:41:46;;;;;;;4.00;3.67;;;;;15.90;95978.00;;;;8242454;28;20234;-65
2023/05/14 17:45:51;;;;;;;3.45;3.15;;;;;16.20;95971.00;;;;8241246;28;20198;-65
2023/05/14 17:49:58;;;;;;;5.45;3.13;;;;;16.60;95970.00;;;;8238058;28;20195;-65
2023/05/14 17:54:01;;;;;;;3.63;3.30;;;;;16.70;95966.00;;;;8246831;28;20227;-65
2023/05/14 17:58:07;;;;;;;9.18;7.05;;;;;16.20;95961.00;;;;8237959;28;20225;-65
2023/05/14 18:02:13;;;;;;;4.82;3.40;;;;;15.70;95959.00;;;;8239305;28;20227;-65
2023/05/14 18:06:18;;;;;;;4.00;3.60;;;;;15.20;95955.00;;;;8248192;28;20907;-66
2023/05/14 18:10:21;;;;;;;4.03;3.63;;;;;14.80;95956.00;;;;8242482;28;20384;-65
2023/05/14 18:14:24;;;;;;;3.88;3.30;;;;;14.50;95949.00;;;;8231150;28;20205;-66
2023/05/14 18:18:32;;;;;;;4.00;3.70;;;;;14.30;95942.00;;;;8244691;28;20250;-66
2023/05/14 18:22:37;;;;;;;7.78;4.00;;;;;14.10;95950.00;;;;8244430;28;20238;-66
2023/05/14 18:26:40;;;;;;;9.60;5.90;;;;;13.90;95941.00;;;;8240188;28;20206;-66
2023/05/14 18:30:45;;;;;;;6.82;4.72;;;;;13.70;95933.00;;;;8243894;28;20203;-66
2023/05/14 18:34:50;;;;;;;8.23;4.40;;;;;13.50;95939.00;;;;8236560;28;20202;-65
2023/05/14 18:38:55;;;;;;;8.15;3.97;;;;;13.30;95937.00;;;;8232869;28;20230;-65
2023/05/14 18:42:58;;;;;;;4.68;3.70;;;;;13.10;95933.00;;;;8236835;28;20915;-65
2023/05/14 18:47:04;;;;;;;6.03;3.65;;;;;12.90;95933.00;;;;8242841;28;20651;-66
2023/05/14 18:51:11;;;;;;;5.72;3.80;;;;;12.80;95933.00;;;;8245119;28;20615;-65
2023/05/14 18:55:17;;;;;;;4.13;3.63;;;;;12.60;95932.00;;;;8240651;28;20260;-65
2023/05/14 18:59:20;;;;;;;21.00;15.30;;;;;12.50;95933.00;;;;8241399;28;20206;-66
2023/05/14 19:03:25;;;;;;;7.10;5.65;;;;;12.40;95936.00;;;;8232121;28;21314;-65
2023/05/14 19:07:33;;;;;;;9.63;6.70;;;;;12.30;95935.00;;;;8234606;28;20199;-66
2023/05/14 19:11:38;;;;;;;5.53;4.15;;;;;12.20;95937.00;;;;8229534;28;20207;-66
2023/05/14 19:15:41;;;;;;;7.57;4.90;;;;;12.00;95940.00;;;;8243856;28;20853;-65
2023/05/14 19:19:45;;;;;;;7.60;4.55;;;;;11.90;95940.00;;;;8245755;28;20205;-66
2023/05/14 19:23:48;;;;;;;4.55;3.97;;;;;11.70;95938.00;;;;8250840;28;20237;-65
2023/05/14 19:27:54;;;;;;;6.13;4.50;;;;;11.60;95945.00;;;;8248479;28;20209;-66
2023/05/14 19:31:57;;;;;;;8.57;4.82;;;;;11.50;95944.00;;;;8249102;28;20248;-66
2023/05/14 19:36:03;;;;;;;9.30;5.10;;;;;11.30;95951.00;;;;8228561;28;20230;-65
2023/05/14 19:40:07;;;;;;;7.43;5.00;;;;;11.20;95945.00;;;;8251694;28;20283;-66
2023/05/14 19:44:12;;;;;;;10.02;4.43;;;;;11.10;95939.00;;;;8245878;28;20229;-65
2023/05/14 19:48:18;;;;;;;6.03;4.00;;;;;11.00;95941.00;;;;8240162;28;20223;-66
2023/05/14 19:52:23;;;;;;;7.05;4.30;;;;;10.90;95944.00;;;;8244395;28;20214;-65
2023/05/14 19:56:30;;;;;;;85.70;7.00;;;;;10.80;95940.00;;;;8245025;28;20207;-66
2023/05/14 20:00:40;;;;;;;135.40;7.18;;;;;10.60;95943.00;;;;8247426;28;20875;-65
2023/05/14 20:04:44;;;;;;;11.15;4.70;;;;;10.60;95940.00;;;;8244832;28;20288;-66
2023/05/14 20:08:48;;;;;;;8.25;4.63;;;;;10.60;95940.00;;;;8235129;28;20208;-66
2023/05/14 20:12:53;;;;;;;8.40;5.15;;;;;10.70;95940.00;;;;8248914;28;20199;-66
2023/05/14 20:17:00;;;;;;;21.27;5.32;;;;;10.80;95931.00;;;;8242155;28;20252;-66
2023/05/14 20:21:04;;;;;;;10.27;5.28;;;;;10.80;95934.00;;;;8241923;28;20222;-66
2023/05/14 20:25:12;;;;;;;7.55;5.07;;;;;10.90;95939.00;;;;8244043;28;20231;-66
2023/05/14 20:29:18;;;;;;;10.90;5.03;;;;;11.00;95944.00;;;;8243180;28;20290;-65